sensor_id;sensor_type;location;lat;lon;timestamp;P1;durP1;ratioP1;P2;durP2;ratioP2
62709;SDS011;48770;51.624;5.886;2022-08-25T00:00:35;2.35;;;1.15;;
62709;SDS011;48770;51.624;5.886;2022-08-25T00:03:00;1.25;;;1.00;;
62709;SDS011;48770;51.624;5.886;2022-08-25T00:05:26;2.80;;;1.20;;
62709;SDS011;48770;51.624;5.886;2022-08-25T00:07:53;0.98;;;0.88;;
62709;SDS011;48770;51.624;5.886;2022-08-25T00:10:19;2.15;;;1.00;;
62709;SDS011;48770;51.624;5.886;2022-08-25T00:12:45;1.02;;;0.90;;
62709;SDS011;48770;51.624;5.886;2022-08-25T00:15:10;1.65;;;1.30;;
62709;SDS011;48770;51.624;5.886;2022-08-25T00:17:36;1.70;;;1.05;;
62709;SDS011;48770;51.624;5.886;2022-08-25T00:20:02;2.50;;;1.10;;
62709;SDS011;48770;51.624;5.886;2022-08-25T00:22:29;1.70;;;1.10;;
62709;SDS011;48770;51.624;5.886;2022-08-25T00:24:54;1.57;;;1.00;;
62709;SDS011;48770;51.624;5.886;2022-08-25T00:27:19;1.70;;;1.33;;
62709;SDS011;48770;51.624;5.886;2022-08-25T00:29:45;1.33;;;1.23;;
62709;SDS011;48770;51.624;5.886;2022-08-25T00:32:11;1.55;;;1.23;;
62709;SDS011;48770;51.624;5.886;2022-08-25T00:34:37;2.08;;;1.00;;
62709;SDS011;48770;51.624;5.886;2022-08-25T00:37:03;2.03;;;1.10;;
62709;SDS011;48770;51.624;5.886;2022-08-25T00:39:31;2.55;;;1.35;;
62709;SDS011;48770;51.624;5.886;2022-08-25T00:41:57;1.80;;;1.05;;
62709;SDS011;48770;51.624;5.886;2022-08-25T00:44:24;1.50;;;1.25;;
62709;SDS011;48770;51.624;5.886;2022-08-25T00:46:54;2.65;;;1.40;;
62709;SDS011;48770;51.624;5.886;2022-08-25T00:49:26;1.58;;;1.10;;
62709;SDS011;48770;51.624;5.886;2022-08-25T00:52:10;2.55;;;1.10;;
62709;SDS011;48770;51.624;5.886;2022-08-25T00:57:19;1.70;;;1.10;;
62709;SDS011;48770;51.624;5.886;2022-08-25T00:59:48;1.30;;;1.20;;
62709;SDS011;48770;51.624;5.886;2022-08-25T01:02:14;1.70;;;1.25;;
62709;SDS011;48770;51.624;5.886;2022-08-25T01:04:40;1.77;;;1.10;;
62709;SDS011;48770;51.624;5.886;2022-08-25T01:07:07;1.50;;;1.40;;
62709;SDS011;48770;51.624;5.886;2022-08-25T01:09:32;2.15;;;1.42;;
62709;SDS011;48770;51.624;5.886;2022-08-25T01:11:59;3.58;;;1.50;;
62709;SDS011;48770;51.624;5.886;2022-08-25T01:14:25;1.20;;;1.10;;
62709;SDS011;48770;51.624;5.886;2022-08-25T01:16:52;2.47;;;1.20;;
62709;SDS011;48770;51.624;5.886;2022-08-25T01:19:18;3.50;;;1.02;;
62709;SDS011;48770;51.624;5.886;2022-08-25T01:21:46;1.45;;;1.17;;
62709;SDS011;48770;51.624;5.886;2022-08-25T01:27:22;2.22;;;1.20;;
62709;SDS011;48770;51.624;5.886;2022-08-25T01:29:47;2.50;;;1.47;;
62709;SDS011;48770;51.624;5.886;2022-08-25T01:32:13;2.53;;;1.30;;
62709;SDS011;48770;51.624;5.886;2022-08-25T01:34:39;1.80;;;1.20;;
62709;SDS011;48770;51.624;5.886;2022-08-25T01:37:07;2.85;;;1.10;;
62709;SDS011;48770;51.624;5.886;2022-08-25T01:39:34;1.67;;;1.27;;
62709;SDS011;48770;51.624;5.886;2022-08-25T01:44:31;2.42;;;1.10;;
62709;SDS011;48770;51.624;5.886;2022-08-25T01:46:59;2.58;;;1.35;;
62709;SDS011;48770;51.624;5.886;2022-08-25T01:49:25;2.35;;;1.33;;
62709;SDS011;48770;51.624;5.886;2022-08-25T01:51:52;1.33;;;1.10;;
62709;SDS011;48770;51.624;5.886;2022-08-25T01:54:21;1.80;;;1.27;;
62709;SDS011;48770;51.624;5.886;2022-08-25T01:56:46;1.40;;;1.30;;
62709;SDS011;48770;51.624;5.886;2022-08-25T01:59:14;2.25;;;1.38;;
62709;SDS011;48770;51.624;5.886;2022-08-25T02:01:41;1.50;;;1.27;;
62709;SDS011;48770;51.624;5.886;2022-08-25T02:04:06;1.40;;;1.20;;
62709;SDS011;48770;51.624;5.886;2022-08-25T02:06:32;1.30;;;1.20;;
62709;SDS011;48770;51.624;5.886;2022-08-25T02:08:59;1.35;;;1.25;;
62709;SDS011;48770;51.624;5.886;2022-08-25T02:11:29;2.08;;;1.40;;
62709;SDS011;48770;51.624;5.886;2022-08-25T02:13:55;2.80;;;1.40;;
62709;SDS011;48770;51.624;5.886;2022-08-25T02:16:24;1.60;;;1.40;;
62709;SDS011;48770;51.624;5.886;2022-08-25T02:18:53;2.97;;;1.73;;
62709;SDS011;48770;51.624;5.886;2022-08-25T02:21:19;2.55;;;1.60;;
62709;SDS011;48770;51.624;5.886;2022-08-25T02:23:44;2.17;;;1.40;;
62709;SDS011;48770;51.624;5.886;2022-08-25T02:26:10;1.92;;;1.30;;
62709;SDS011;48770;51.624;5.886;2022-08-25T02:28:36;1.60;;;1.40;;
62709;SDS011;48770;51.624;5.886;2022-08-25T02:31:02;1.70;;;1.60;;
62709;SDS011;48770;51.624;5.886;2022-08-25T02:33:29;1.90;;;1.30;;
62709;SDS011;48770;51.624;5.886;2022-08-25T02:36:00;5.65;;;1.38;;
62709;SDS011;48770;51.624;5.886;2022-08-25T02:38:26;2.13;;;1.33;;
62709;SDS011;48770;51.624;5.886;2022-08-25T02:40:53;3.10;;;1.40;;
62709;SDS011;48770;51.624;5.886;2022-08-25T02:43:23;2.38;;;1.40;;
62709;SDS011;48770;51.624;5.886;2022-08-25T02:45:50;1.58;;;1.30;;
62709;SDS011;48770;51.624;5.886;2022-08-25T02:48:16;1.45;;;1.08;;
62709;SDS011;48770;51.624;5.886;2022-08-25T02:50:46;2.88;;;1.70;;
62709;SDS011;48770;51.624;5.886;2022-08-25T02:53:12;3.20;;;1.42;;
62709;SDS011;48770;51.624;5.886;2022-08-25T02:55:38;2.67;;;1.55;;
62709;SDS011;48770;51.624;5.886;2022-08-25T02:58:04;1.60;;;1.50;;
62709;SDS011;48770;51.624;5.886;2022-08-25T03:00:29;1.65;;;1.40;;
62709;SDS011;48770;51.624;5.886;2022-08-25T03:02:55;4.05;;;1.40;;
62709;SDS011;48770;51.624;5.886;2022-08-25T03:05:20;2.65;;;1.77;;
62709;SDS011;48770;51.624;5.886;2022-08-25T03:07:46;2.30;;;1.63;;
62709;SDS011;48770;51.624;5.886;2022-08-25T03:10:12;1.52;;;1.40;;
62709;SDS011;48770;51.624;5.886;2022-08-25T03:12:40;1.80;;;1.27;;
62709;SDS011;48770;51.624;5.886;2022-08-25T03:15:07;1.50;;;1.40;;
62709;SDS011;48770;51.624;5.886;2022-08-25T03:17:33;1.67;;;1.45;;
62709;SDS011;48770;51.624;5.886;2022-08-25T03:19:59;1.92;;;1.45;;
62709;SDS011;48770;51.624;5.886;2022-08-25T03:22:24;1.90;;;1.25;;
62709;SDS011;48770;51.624;5.886;2022-08-25T03:24:50;2.47;;;1.52;;
62709;SDS011;48770;51.624;5.886;2022-08-25T03:27:15;1.20;;;1.10;;
62709;SDS011;48770;51.624;5.886;2022-08-25T03:29:40;1.73;;;1.40;;
62709;SDS011;48770;51.624;5.886;2022-08-25T03:32:06;3.30;;;1.20;;
62709;SDS011;48770;51.624;5.886;2022-08-25T03:34:32;1.52;;;1.42;;
62709;SDS011;48770;51.624;5.886;2022-08-25T03:36:58;3.28;;;1.50;;
62709;SDS011;48770;51.624;5.886;2022-08-25T03:39:24;1.70;;;1.40;;
62709;SDS011;48770;51.624;5.886;2022-08-25T03:41:50;2.25;;;1.40;;
62709;SDS011;48770;51.624;5.886;2022-08-25T03:44:17;1.80;;;1.63;;
62709;SDS011;48770;51.624;5.886;2022-08-25T03:46:44;2.97;;;1.65;;
62709;SDS011;48770;51.624;5.886;2022-08-25T03:49:13;2.10;;;1.55;;
62709;SDS011;48770;51.624;5.886;2022-08-25T03:51:43;1.95;;;1.65;;
62709;SDS011;48770;51.624;5.886;2022-08-25T03:54:17;2.60;;;1.67;;
62709;SDS011;48770;51.624;5.886;2022-08-25T03:56:45;2.25;;;1.30;;
62709;SDS011;48770;51.624;5.886;2022-08-25T03:59:10;2.55;;;1.52;;
62709;SDS011;48770;51.624;5.886;2022-08-25T04:01:36;1.63;;;1.52;;
62709;SDS011;48770;51.624;5.886;2022-08-25T04:04:04;3.50;;;1.50;;
62709;SDS011;48770;51.624;5.886;2022-08-25T04:06:30;2.20;;;1.48;;
62709;SDS011;48770;51.624;5.886;2022-08-25T04:08:56;1.90;;;1.50;;
62709;SDS011;48770;51.624;5.886;2022-08-25T04:11:23;2.00;;;1.58;;
62709;SDS011;48770;51.624;5.886;2022-08-25T04:13:49;1.75;;;1.30;;
62709;SDS011;48770;51.624;5.886;2022-08-25T04:16:20;3.75;;;1.58;;
62709;SDS011;48770;51.624;5.886;2022-08-25T04:18:47;1.90;;;1.67;;
62709;SDS011;48770;51.624;5.886;2022-08-25T04:21:14;3.25;;;1.88;;
62709;SDS011;48770;51.624;5.886;2022-08-25T04:23:42;3.97;;;1.50;;
62709;SDS011;48770;51.624;5.886;2022-08-25T04:28:34;2.17;;;1.60;;
62709;SDS011;48770;51.624;5.886;2022-08-25T04:30:59;2.05;;;1.20;;
62709;SDS011;48770;51.624;5.886;2022-08-25T04:33:24;1.87;;;1.50;;
62709;SDS011;48770;51.624;5.886;2022-08-25T04:35:50;2.55;;;1.80;;
62709;SDS011;48770;51.624;5.886;2022-08-25T04:38:15;3.17;;;1.80;;
62709;SDS011;48770;51.624;5.886;2022-08-25T04:40:41;3.33;;;1.50;;
62709;SDS011;48770;51.624;5.886;2022-08-25T04:43:06;2.90;;;1.65;;
62709;SDS011;48770;51.624;5.886;2022-08-25T04:45:38;1.95;;;1.58;;
62709;SDS011;48770;51.624;5.886;2022-08-25T04:48:04;3.28;;;1.80;;
62709;SDS011;48770;51.624;5.886;2022-08-25T04:50:29;2.85;;;1.80;;
62709;SDS011;48770;51.624;5.886;2022-08-25T04:52:55;3.22;;;1.40;;
62709;SDS011;48770;51.624;5.886;2022-08-25T04:55:20;2.00;;;1.50;;
62709;SDS011;48770;51.624;5.886;2022-08-25T04:57:45;2.10;;;1.50;;
62709;SDS011;48770;51.624;5.886;2022-08-25T05:00:11;2.15;;;1.70;;
62709;SDS011;48770;51.624;5.886;2022-08-25T05:02:37;2.97;;;1.50;;
62709;SDS011;48770;51.624;5.886;2022-08-25T05:05:02;3.95;;;1.95;;
62709;SDS011;48770;51.624;5.886;2022-08-25T05:07:28;2.67;;;1.85;;
62709;SDS011;48770;51.624;5.886;2022-08-25T05:09:53;2.47;;;1.65;;
62709;SDS011;48770;51.624;5.886;2022-08-25T05:12:18;2.83;;;1.83;;
62709;SDS011;48770;51.624;5.886;2022-08-25T05:14:44;2.72;;;1.50;;
62709;SDS011;48770;51.624;5.886;2022-08-25T05:17:10;4.95;;;1.60;;
62709;SDS011;48770;51.624;5.886;2022-08-25T05:19:35;2.78;;;1.65;;
62709;SDS011;48770;51.624;5.886;2022-08-25T05:22:00;3.08;;;1.40;;
62709;SDS011;48770;51.624;5.886;2022-08-25T05:24:26;3.17;;;1.58;;
62709;SDS011;48770;51.624;5.886;2022-08-25T05:26:51;3.60;;;1.75;;
62709;SDS011;48770;51.624;5.886;2022-08-25T05:29:17;2.40;;;1.42;;
62709;SDS011;48770;51.624;5.886;2022-08-25T05:31:43;2.97;;;1.55;;
62709;SDS011;48770;51.624;5.886;2022-08-25T05:34:09;1.90;;;1.63;;
62709;SDS011;48770;51.624;5.886;2022-08-25T05:36:36;2.17;;;1.80;;
62709;SDS011;48770;51.624;5.886;2022-08-25T05:39:02;3.08;;;1.70;;
62709;SDS011;48770;51.624;5.886;2022-08-25T05:41:28;4.85;;;1.45;;
62709;SDS011;48770;51.624;5.886;2022-08-25T05:43:55;2.78;;;1.33;;
62709;SDS011;48770;51.624;5.886;2022-08-25T05:46:21;2.15;;;1.70;;
62709;SDS011;48770;51.624;5.886;2022-08-25T05:48:47;2.65;;;1.70;;
62709;SDS011;48770;51.624;5.886;2022-08-25T05:51:13;2.33;;;1.73;;
62709;SDS011;48770;51.624;5.886;2022-08-25T05:53:40;2.45;;;1.65;;
62709;SDS011;48770;51.624;5.886;2022-08-25T05:56:08;2.08;;;1.60;;
62709;SDS011;48770;51.624;5.886;2022-08-25T05:58:34;2.50;;;1.70;;
62709;SDS011;48770;51.624;5.886;2022-08-25T06:01:01;3.65;;;1.77;;
62709;SDS011;48770;51.624;5.886;2022-08-25T06:03:48;3.13;;;1.60;;
62709;SDS011;48770;51.624;5.886;2022-08-25T06:06:17;2.30;;;1.80;;
62709;SDS011;48770;51.624;5.886;2022-08-25T06:08:42;3.45;;;1.55;;
62709;SDS011;48770;51.624;5.886;2022-08-25T06:11:09;2.33;;;1.70;;
62709;SDS011;48770;51.624;5.886;2022-08-25T06:13:36;2.75;;;1.67;;
62709;SDS011;48770;51.624;5.886;2022-08-25T06:16:02;2.25;;;1.67;;
62709;SDS011;48770;51.624;5.886;2022-08-25T06:18:27;3.13;;;1.73;;
62709;SDS011;48770;51.624;5.886;2022-08-25T06:20:53;1.90;;;1.70;;
62709;SDS011;48770;51.624;5.886;2022-08-25T06:23:18;2.88;;;1.60;;
62709;SDS011;48770;51.624;5.886;2022-08-25T06:25:50;4.15;;;2.33;;
62709;SDS011;48770;51.624;5.886;2022-08-25T06:28:16;2.30;;;1.80;;
62709;SDS011;48770;51.624;5.886;2022-08-25T06:30:42;2.80;;;1.77;;
62709;SDS011;48770;51.624;5.886;2022-08-25T06:33:07;1.73;;;1.63;;
62709;SDS011;48770;51.624;5.886;2022-08-25T06:35:33;3.15;;;1.63;;
62709;SDS011;48770;51.624;5.886;2022-08-25T06:37:58;3.65;;;1.77;;
62709;SDS011;48770;51.624;5.886;2022-08-25T06:40:24;3.50;;;1.90;;
62709;SDS011;48770;51.624;5.886;2022-08-25T06:42:50;4.05;;;2.15;;
62709;SDS011;48770;51.624;5.886;2022-08-25T06:45:15;2.42;;;1.70;;
62709;SDS011;48770;51.624;5.886;2022-08-25T06:47:40;3.63;;;2.42;;
62709;SDS011;48770;51.624;5.886;2022-08-25T06:50:06;4.13;;;2.20;;
62709;SDS011;48770;51.624;5.886;2022-08-25T06:52:32;3.28;;;2.22;;
62709;SDS011;48770;51.624;5.886;2022-08-25T06:54:57;4.40;;;1.85;;
62709;SDS011;48770;51.624;5.886;2022-08-25T06:57:23;6.55;;;2.47;;
62709;SDS011;48770;51.624;5.886;2022-08-25T06:59:48;3.05;;;1.90;;
62709;SDS011;48770;51.624;5.886;2022-08-25T07:02:13;8.07;;;2.13;;
62709;SDS011;48770;51.624;5.886;2022-08-25T07:04:39;5.30;;;2.00;;
62709;SDS011;48770;51.624;5.886;2022-08-25T07:07:04;5.55;;;2.15;;
62709;SDS011;48770;51.624;5.886;2022-08-25T07:09:30;2.25;;;1.90;;
62709;SDS011;48770;51.624;5.886;2022-08-25T07:11:56;8.65;;;2.10;;
62709;SDS011;48770;51.624;5.886;2022-08-25T07:14:21;6.55;;;1.95;;
62709;SDS011;48770;51.624;5.886;2022-08-25T07:16:46;9.63;;;2.38;;
62709;SDS011;48770;51.624;5.886;2022-08-25T07:19:12;2.78;;;1.90;;
62709;SDS011;48770;51.624;5.886;2022-08-25T07:21:38;2.45;;;1.90;;
62709;SDS011;48770;51.624;5.886;2022-08-25T07:24:06;3.15;;;1.80;;
62709;SDS011;48770;51.624;5.886;2022-08-25T07:26:33;4.22;;;2.15;;
62709;SDS011;48770;51.624;5.886;2022-08-25T07:28:59;3.97;;;1.90;;
62709;SDS011;48770;51.624;5.886;2022-08-25T07:31:26;3.90;;;2.33;;
62709;SDS011;48770;51.624;5.886;2022-08-25T07:33:52;4.97;;;2.17;;
62709;SDS011;48770;51.624;5.886;2022-08-25T07:36:36;3.50;;;2.00;;
62709;SDS011;48770;51.624;5.886;2022-08-25T07:39:02;4.65;;;2.20;;
62709;SDS011;48770;51.624;5.886;2022-08-25T07:41:29;3.25;;;2.00;;
62709;SDS011;48770;51.624;5.886;2022-08-25T07:44:00;2.53;;;2.05;;
62709;SDS011;48770;51.624;5.886;2022-08-25T07:46:25;4.57;;;1.77;;
62709;SDS011;48770;51.624;5.886;2022-08-25T07:48:51;2.97;;;1.80;;
62709;SDS011;48770;51.624;5.886;2022-08-25T07:51:16;5.55;;;2.08;;
62709;SDS011;48770;51.624;5.886;2022-08-25T07:53:41;2.40;;;2.03;;
62709;SDS011;48770;51.624;5.886;2022-08-25T07:56:14;5.22;;;1.85;;
62709;SDS011;48770;51.624;5.886;2022-08-25T07:58:41;2.00;;;1.80;;
62709;SDS011;48770;51.624;5.886;2022-08-25T08:01:12;2.03;;;1.80;;
62709;SDS011;48770;51.624;5.886;2022-08-25T08:03:43;2.35;;;1.92;;
62709;SDS011;48770;51.624;5.886;2022-08-25T08:06:09;2.35;;;2.00;;
62709;SDS011;48770;51.624;5.886;2022-08-25T08:08:37;4.47;;;2.22;;
62709;SDS011;48770;51.624;5.886;2022-08-25T08:11:03;4.10;;;1.65;;
62709;SDS011;48770;51.624;5.886;2022-08-25T08:13:29;7.65;;;2.30;;
62709;SDS011;48770;51.624;5.886;2022-08-25T08:15:55;4.68;;;2.10;;
62709;SDS011;48770;51.624;5.886;2022-08-25T08:18:21;2.40;;;1.88;;
62709;SDS011;48770;51.624;5.886;2022-08-25T08:20:46;3.63;;;2.20;;
62709;SDS011;48770;51.624;5.886;2022-08-25T08:23:13;3.40;;;2.28;;
62709;SDS011;48770;51.624;5.886;2022-08-25T08:25:40;3.08;;;2.25;;
62709;SDS011;48770;51.624;5.886;2022-08-25T08:28:05;3.20;;;2.17;;
62709;SDS011;48770;51.624;5.886;2022-08-25T08:30:31;3.25;;;2.35;;
62709;SDS011;48770;51.624;5.886;2022-08-25T08:32:56;3.30;;;2.47;;
62709;SDS011;48770;51.624;5.886;2022-08-25T08:35:22;3.55;;;2.30;;
62709;SDS011;48770;51.624;5.886;2022-08-25T08:37:48;4.20;;;2.42;;
62709;SDS011;48770;51.624;5.886;2022-08-25T08:40:14;6.55;;;2.03;;
62709;SDS011;48770;51.624;5.886;2022-08-25T08:45:29;6.10;;;2.60;;
62709;SDS011;48770;51.624;5.886;2022-08-25T08:48:13;4.97;;;2.30;;
62709;SDS011;48770;51.624;5.886;2022-08-25T08:51:10;4.25;;;2.53;;
62709;SDS011;48770;51.624;5.886;2022-08-25T08:53:43;4.32;;;2.60;;
62709;SDS011;48770;51.624;5.886;2022-08-25T08:56:11;3.90;;;2.42;;
62709;SDS011;48770;51.624;5.886;2022-08-25T08:58:48;7.10;;;2.75;;
62709;SDS011;48770;51.624;5.886;2022-08-25T09:01:22;5.38;;;2.53;;
62709;SDS011;48770;51.624;5.886;2022-08-25T09:03:55;3.28;;;2.40;;
62709;SDS011;48770;51.624;5.886;2022-08-25T09:06:43;4.75;;;2.47;;
62709;SDS011;48770;51.624;5.886;2022-08-25T09:09:12;5.10;;;2.72;;
62709;SDS011;48770;51.624;5.886;2022-08-25T09:14:29;5.30;;;2.58;;
62709;SDS011;48770;51.624;5.886;2022-08-25T09:20:08;4.55;;;2.60;;
62709;SDS011;48770;51.624;5.886;2022-08-25T09:33:28;4.60;;;2.60;;
62709;SDS011;48770;51.624;5.886;2022-08-25T09:35:56;7.05;;;2.85;;
62709;SDS011;48770;51.624;5.886;2022-08-25T09:38:21;6.63;;;2.97;;
62709;SDS011;48770;51.624;5.886;2022-08-25T09:40:49;5.22;;;2.65;;
62709;SDS011;48770;51.624;5.886;2022-08-25T09:46:02;5.88;;;2.88;;
62709;SDS011;48770;51.624;5.886;2022-08-25T09:48:34;5.82;;;2.95;;
62709;SDS011;48770;51.624;5.886;2022-08-25T09:53:34;4.68;;;2.67;;
62709;SDS011;48770;51.624;5.886;2022-08-25T09:56:02;6.55;;;2.97;;
62709;SDS011;48770;51.624;5.886;2022-08-25T09:58:30;5.43;;;3.17;;
62709;SDS011;48770;51.624;5.886;2022-08-25T10:01:05;9.25;;;2.72;;
62709;SDS011;48770;51.624;5.886;2022-08-25T10:03:37;8.73;;;3.10;;
62709;SDS011;48770;51.624;5.886;2022-08-25T10:06:17;5.93;;;2.50;;
62709;SDS011;48770;51.624;5.886;2022-08-25T10:11:12;7.20;;;2.90;;
62709;SDS011;48770;51.624;5.886;2022-08-25T10:13:43;6.22;;;2.88;;
62709;SDS011;48770;51.624;5.886;2022-08-25T10:16:21;4.85;;;2.60;;
62709;SDS011;48770;51.624;5.886;2022-08-25T10:21:26;7.53;;;2.40;;
62709;SDS011;48770;51.624;5.886;2022-08-25T10:23:52;3.95;;;2.42;;
62709;SDS011;48770;51.624;5.886;2022-08-25T10:31:45;5.70;;;2.60;;
62709;SDS011;48770;51.624;5.886;2022-08-25T10:34:21;3.67;;;2.45;;
62709;SDS011;48770;51.624;5.886;2022-08-25T10:42:08;6.80;;;2.47;;
62709;SDS011;48770;51.624;5.886;2022-08-25T10:45:44;6.57;;;2.78;;
62709;SDS011;48770;51.624;5.886;2022-08-25T10:50:59;3.72;;;2.22;;
62709;SDS011;48770;51.624;5.886;2022-08-25T11:01:24;2.28;;;1.90;;
62709;SDS011;48770;51.624;5.886;2022-08-25T11:03:55;2.88;;;1.90;;
62709;SDS011;48770;51.624;5.886;2022-08-25T11:09:04;3.75;;;2.20;;
62709;SDS011;48770;51.624;5.886;2022-08-25T11:11:38;5.32;;;1.85;;
62709;SDS011;48770;51.624;5.886;2022-08-25T11:14:33;3.33;;;1.85;;
62709;SDS011;48770;51.624;5.886;2022-08-25T11:17:09;7.18;;;1.90;;
62709;SDS011;48770;51.624;5.886;2022-08-25T11:19:40;1.65;;;1.48;;
62709;SDS011;48770;51.624;5.886;2022-08-25T11:30:32;3.58;;;2.38;;
62709;SDS011;48770;51.624;5.886;2022-08-25T11:32:57;4.43;;;2.05;;
62709;SDS011;48770;51.624;5.886;2022-08-25T11:35:31;3.92;;;2.08;;
62709;SDS011;48770;51.624;5.886;2022-08-25T11:43:13;1.80;;;1.70;;
62709;SDS011;48770;51.624;5.886;2022-08-25T11:46:03;4.32;;;1.90;;
62709;SDS011;48770;51.624;5.886;2022-08-25T11:48:52;2.10;;;1.80;;
62709;SDS011;48770;51.624;5.886;2022-08-25T11:54:06;1.80;;;1.58;;
62709;SDS011;48770;51.624;5.886;2022-08-25T11:56:40;4.75;;;1.98;;
62709;SDS011;48770;51.624;5.886;2022-08-25T11:59:06;1.52;;;1.42;;
62709;SDS011;48770;51.624;5.886;2022-08-25T12:02:17;1.95;;;1.73;;
62709;SDS011;48770;51.624;5.886;2022-08-25T12:09:31;2.53;;;1.85;;
62709;SDS011;48770;51.624;5.886;2022-08-25T12:11:58;3.60;;;1.50;;
62709;SDS011;48770;51.624;5.886;2022-08-25T12:14:43;2.75;;;1.60;;
62709;SDS011;48770;51.624;5.886;2022-08-25T12:17:18;4.00;;;1.60;;
62709;SDS011;48770;51.624;5.886;2022-08-25T12:19:47;2.30;;;1.63;;
62709;SDS011;48770;51.624;5.886;2022-08-25T12:29:48;2.75;;;1.77;;
62709;SDS011;48770;51.624;5.886;2022-08-25T12:35:27;2.75;;;1.58;;
62709;SDS011;48770;51.624;5.886;2022-08-25T12:38:27;2.95;;;1.50;;
62709;SDS011;48770;51.624;5.886;2022-08-25T12:40:56;1.98;;;1.40;;
62709;SDS011;48770;51.624;5.886;2022-08-25T12:46:50;3.55;;;1.58;;
62709;SDS011;48770;51.624;5.886;2022-08-25T12:54:12;1.50;;;1.40;;
62709;SDS011;48770;51.624;5.886;2022-08-25T12:56:41;2.30;;;1.30;;
62709;SDS011;48770;51.624;5.886;2022-08-25T12:59:16;1.75;;;1.55;;
62709;SDS011;48770;51.624;5.886;2022-08-25T13:07:33;1.45;;;1.10;;
62709;SDS011;48770;51.624;5.886;2022-08-25T13:12:56;1.55;;;1.20;;
62709;SDS011;48770;51.624;5.886;2022-08-25T13:15:26;1.50;;;1.30;;
62709;SDS011;48770;51.624;5.886;2022-08-25T13:20:47;1.67;;;1.45;;
62709;SDS011;48770;51.624;5.886;2022-08-25T13:23:18;1.40;;;1.30;;
62709;SDS011;48770;51.624;5.886;2022-08-25T13:25:50;1.90;;;1.23;;
62709;SDS011;48770;51.624;5.886;2022-08-25T13:28:22;2.45;;;1.23;;
62709;SDS011;48770;51.624;5.886;2022-08-25T13:30:58;1.88;;;1.30;;
62709;SDS011;48770;51.624;5.886;2022-08-25T13:33:27;1.30;;;1.20;;
62709;SDS011;48770;51.624;5.886;2022-08-25T13:35:54;1.77;;;1.52;;
62709;SDS011;48770;51.624;5.886;2022-08-25T13:38:40;1.48;;;1.38;;
62709;SDS011;48770;51.624;5.886;2022-08-25T13:41:06;1.35;;;1.25;;
62709;SDS011;48770;51.624;5.886;2022-08-25T13:43:33;2.65;;;1.52;;
62709;SDS011;48770;51.624;5.886;2022-08-25T13:46:00;1.35;;;1.20;;
62709;SDS011;48770;51.624;5.886;2022-08-25T13:48:33;2.00;;;1.50;;
62709;SDS011;48770;51.624;5.886;2022-08-25T13:51:50;1.55;;;1.35;;
62709;SDS011;48770;51.624;5.886;2022-08-25T13:53:52;1.58;;;1.48;;
62709;SDS011;48770;51.624;5.886;2022-08-25T13:56:33;3.08;;;1.38;;
62709;SDS011;48770;51.624;5.886;2022-08-25T13:59:02;1.50;;;1.20;;
62709;SDS011;48770;51.624;5.886;2022-08-25T14:01:36;1.88;;;1.10;;
62709;SDS011;48770;51.624;5.886;2022-08-25T14:07:23;1.92;;;1.33;;
62709;SDS011;48770;51.624;5.886;2022-08-25T14:17:33;1.98;;;0.98;;
62709;SDS011;48770;51.624;5.886;2022-08-25T14:19:59;1.63;;;1.27;;
62709;SDS011;48770;51.624;5.886;2022-08-25T14:22:25;1.77;;;1.45;;
62709;SDS011;48770;51.624;5.886;2022-08-25T14:24:51;2.08;;;1.40;;
62709;SDS011;48770;51.624;5.886;2022-08-25T14:27:18;1.73;;;1.50;;
62709;SDS011;48770;51.624;5.886;2022-08-25T14:29:43;1.23;;;1.13;;
62709;SDS011;48770;51.624;5.886;2022-08-25T14:32:09;1.98;;;1.38;;
62709;SDS011;48770;51.624;5.886;2022-08-25T14:34:35;2.15;;;1.40;;
62709;SDS011;48770;51.624;5.886;2022-08-25T14:37:11;1.10;;;1.00;;
62709;SDS011;48770;51.624;5.886;2022-08-25T14:39:38;1.20;;;1.10;;
62709;SDS011;48770;51.624;5.886;2022-08-25T14:42:04;1.88;;;1.48;;
62709;SDS011;48770;51.624;5.886;2022-08-25T14:44:29;2.22;;;1.48;;
62709;SDS011;48770;51.624;5.886;2022-08-25T14:46:55;1.55;;;1.45;;
62709;SDS011;48770;51.624;5.886;2022-08-25T14:49:25;1.25;;;1.15;;
62709;SDS011;48770;51.624;5.886;2022-08-25T14:52:09;1.15;;;1.05;;
62709;SDS011;48770;51.624;5.886;2022-08-25T14:54:40;1.83;;;1.33;;
62709;SDS011;48770;51.624;5.886;2022-08-25T14:57:05;1.30;;;1.20;;
62709;SDS011;48770;51.624;5.886;2022-08-25T14:59:31;1.30;;;1.20;;
62709;SDS011;48770;51.624;5.886;2022-08-25T15:01:56;1.20;;;0.80;;
62709;SDS011;48770;51.624;5.886;2022-08-25T15:04:24;1.85;;;1.35;;
62709;SDS011;48770;51.624;5.886;2022-08-25T15:06:56;1.52;;;1.27;;
62709;SDS011;48770;51.624;5.886;2022-08-25T15:09:23;1.55;;;1.27;;
62709;SDS011;48770;51.624;5.886;2022-08-25T15:11:50;1.58;;;0.90;;
62709;SDS011;48770;51.624;5.886;2022-08-25T15:14:19;1.23;;;1.08;;
62709;SDS011;48770;51.624;5.886;2022-08-25T15:16:48;1.23;;;1.13;;
62709;SDS011;48770;51.624;5.886;2022-08-25T15:19:16;2.10;;;1.02;;
62709;SDS011;48770;51.624;5.886;2022-08-25T15:21:43;1.75;;;1.23;;
62709;SDS011;48770;51.624;5.886;2022-08-25T15:24:10;4.53;;;1.95;;
62709;SDS011;48770;51.624;5.886;2022-08-25T15:26:48;2.40;;;1.80;;
62709;SDS011;48770;51.624;5.886;2022-08-25T15:29:16;2.80;;;1.90;;
62709;SDS011;48770;51.624;5.886;2022-08-25T15:31:42;2.33;;;1.85;;
62709;SDS011;48770;51.624;5.886;2022-08-25T15:34:08;2.35;;;1.75;;
62709;SDS011;48770;51.624;5.886;2022-08-25T15:36:34;3.70;;;1.90;;
62709;SDS011;48770;51.624;5.886;2022-08-25T15:39:00;3.35;;;2.00;;
62709;SDS011;48770;51.624;5.886;2022-08-25T15:41:28;2.55;;;1.70;;
62709;SDS011;48770;51.624;5.886;2022-08-25T15:43:54;3.83;;;1.70;;
62709;SDS011;48770;51.624;5.886;2022-08-25T15:46:20;2.13;;;1.73;;
62709;SDS011;48770;51.624;5.886;2022-08-25T15:48:47;1.83;;;1.60;;
62709;SDS011;48770;51.624;5.886;2022-08-25T15:51:14;3.75;;;1.95;;
62709;SDS011;48770;51.624;5.886;2022-08-25T15:53:40;3.78;;;1.90;;
62709;SDS011;48770;51.624;5.886;2022-08-25T15:56:05;2.70;;;1.75;;
62709;SDS011;48770;51.624;5.886;2022-08-25T15:58:31;2.03;;;1.58;;
62709;SDS011;48770;51.624;5.886;2022-08-25T16:00:58;1.63;;;1.42;;
62709;SDS011;48770;51.624;5.886;2022-08-25T16:03:24;1.55;;;1.40;;
62709;SDS011;48770;51.624;5.886;2022-08-25T16:05:49;3.38;;;1.67;;
62709;SDS011;48770;51.624;5.886;2022-08-25T16:08:15;2.13;;;1.60;;
62709;SDS011;48770;51.624;5.886;2022-08-25T16:10:41;2.67;;;1.88;;
62709;SDS011;48770;51.624;5.886;2022-08-25T16:13:07;1.90;;;1.70;;
62709;SDS011;48770;51.624;5.886;2022-08-25T16:15:34;2.70;;;1.70;;
62709;SDS011;48770;51.624;5.886;2022-08-25T16:18:00;1.90;;;1.65;;
62709;SDS011;48770;51.624;5.886;2022-08-25T16:20:27;4.00;;;1.70;;
62709;SDS011;48770;51.624;5.886;2022-08-25T16:22:54;2.30;;;1.50;;
62709;SDS011;48770;51.624;5.886;2022-08-25T16:25:19;2.00;;;1.60;;
62709;SDS011;48770;51.624;5.886;2022-08-25T16:27:45;3.10;;;1.80;;
62709;SDS011;48770;51.624;5.886;2022-08-25T16:30:11;1.55;;;1.40;;
62709;SDS011;48770;51.624;5.886;2022-08-25T16:32:37;1.85;;;1.58;;
62709;SDS011;48770;51.624;5.886;2022-08-25T16:35:03;1.85;;;1.58;;
62709;SDS011;48770;51.624;5.886;2022-08-25T16:37:31;1.90;;;1.50;;
62709;SDS011;48770;51.624;5.886;2022-08-25T16:39:58;1.52;;;1.30;;
62709;SDS011;48770;51.624;5.886;2022-08-25T16:42:23;2.70;;;1.63;;
62709;SDS011;48770;51.624;5.886;2022-08-25T16:44:48;1.90;;;1.60;;
62709;SDS011;48770;51.624;5.886;2022-08-25T16:47:14;2.45;;;1.50;;
62709;SDS011;48770;51.624;5.886;2022-08-25T16:49:40;1.42;;;1.25;;
62709;SDS011;48770;51.624;5.886;2022-08-25T16:52:07;1.75;;;1.50;;
62709;SDS011;48770;51.624;5.886;2022-08-25T16:54:51;1.40;;;1.30;;
62709;SDS011;48770;51.624;5.886;2022-08-25T16:57:35;1.65;;;1.45;;
62709;SDS011;48770;51.624;5.886;2022-08-25T17:00:01;1.73;;;1.63;;
62709;SDS011;48770;51.624;5.886;2022-08-25T17:02:27;3.13;;;1.80;;